createdAt,value
2019-05-06T00:00:56.586Z,5.60
2019-05-06T00:05:56.289Z,4.73
2019-05-06T00:11:01.683Z,5.33
2019-05-06T00:16:07.175Z,5.70
2019-05-06T00:21:14.714Z,8.20
2019-05-06T00:26:57.234Z,9.20
2019-05-06T00:32:04.292Z,9.57
2019-05-06T00:37:09.771Z,8.63
2019-05-06T00:42:34.436Z,5.53
2019-05-06T00:47:39.495Z,5.20
2019-05-06T00:52:45.162Z,5.57
2019-05-06T00:57:50.756Z,5.20
2019-05-06T01:02:58.994Z,5.60
2019-05-06T01:08:04.405Z,4.73
2019-05-06T01:13:29.517Z,5.30
2019-05-06T01:18:35.341Z,5.20
2019-05-06T01:23:45.008Z,5.33
2019-05-06T01:28:50.574Z,5.10
2019-05-06T01:33:56.932Z,4.97
2019-05-06T01:39:21.514Z,5.00
2019-05-06T01:44:26.868Z,4.77
2019-05-06T01:49:34.010Z,4.90
2019-05-06T01:54:39.927Z,4.83
2019-05-06T01:59:47.415Z,5.10
2019-05-06T02:04:55.532Z,5.27
2019-05-06T02:10:03.956Z,5.53
2019-05-06T02:15:09.567Z,4.90
2019-05-06T02:20:15.146Z,4.70
2019-05-06T02:25:34.151Z,5.30
2019-05-06T02:30:54.802Z,5.60
2019-05-06T02:36:25.561Z,4.93
2019-05-06T02:41:33.705Z,5.37
2019-05-06T02:46:44.086Z,5.90
2019-05-06T02:51:53.446Z,6.07
2019-05-06T02:57:03.929Z,5.23
2019-05-06T03:02:07.840Z,5.17
2019-05-06T03:07:14.551Z,6.03
2019-05-06T03:12:22.625Z,5.83
2019-05-06T03:17:28.830Z,5.70
2019-05-06T03:22:49.564Z,5.20
2019-05-06T03:27:56.273Z,6.80
2019-05-06T03:33:31.412Z,6.10
2019-05-06T03:38:09.807Z,5.50
2019-05-06T03:43:15.980Z,6.57
2019-05-06T03:48:28.345Z,6.10
2019-05-06T03:53:36.809Z,6.10
2019-05-06T03:58:44.362Z,6.13
2019-05-06T04:03:53.779Z,6.80
2019-05-06T04:08:59.293Z,6.47
2019-05-06T04:14:06.929Z,6.97
2019-05-06T04:19:20.410Z,6.13
2019-05-06T04:24:39.437Z,6.00
2019-05-06T04:29:44.922Z,6.53
2019-05-06T04:34:53.204Z,6.13
2019-05-06T04:39:57.660Z,6.10
2019-05-06T04:45:04.545Z,6.83
2019-05-06T04:50:13.260Z,5.73
2019-05-06T04:55:22.657Z,5.83
2019-05-06T05:00:33.125Z,6.07
2019-05-06T05:05:38.987Z,6.17
2019-05-06T05:10:59.458Z,6.67
2019-05-06T05:16:22.168Z,7.33
2019-05-06T05:21:27.763Z,5.77
2019-05-06T05:26:34.866Z,6.00
2019-05-06T05:31:40.298Z,5.53
2019-05-06T05:36:47.325Z,6.33
2019-05-06T05:41:54.688Z,5.67
2019-05-06T05:47:03.456Z,6.13
2019-05-06T05:52:12.537Z,6.00
2019-05-06T05:57:18.158Z,7.13
2019-05-06T06:02:23.897Z,7.07
2019-05-06T06:07:29.175Z,6.80
2019-05-06T06:12:34.901Z,6.00
2019-05-06T06:17:57.911Z,6.50
2019-05-06T06:23:13.537Z,6.40
2019-05-06T06:28:19.085Z,6.73
2019-05-06T06:33:24.906Z,7.47
2019-05-06T06:38:52.593Z,6.33
2019-05-06T06:44:03.116Z,6.53
2019-05-06T06:49:08.800Z,6.20
2019-05-06T06:54:14.135Z,6.13
2019-05-06T06:59:31.865Z,6.17
2019-05-06T07:04:48.488Z,5.77
2019-05-06T07:09:53.813Z,5.37
2019-05-06T07:15:02.382Z,6.03
2019-05-06T07:20:13.091Z,6.07
2019-05-06T07:25:18.234Z,4.83
2019-05-06T07:30:32.808Z,5.53
2019-05-06T07:35:43.884Z,4.90
2019-05-06T07:40:53.037Z,4.80
2019-05-06T07:46:02.457Z,5.13
2019-05-06T07:51:09.266Z,4.70
2019-05-06T07:56:22.772Z,4.50
2019-05-06T08:01:38.874Z,4.67
2019-05-06T08:06:52.371Z,4.03
2019-05-06T08:11:57.803Z,5.40
2019-05-06T08:17:04.988Z,3.83
2019-05-06T08:22:16.822Z,4.07
2019-05-06T08:27:23.274Z,3.27
2019-05-06T08:32:28.747Z,3.50
2019-05-06T08:37:37.192Z,3.17
2019-05-06T08:42:42.926Z,2.87
2019-05-06T08:47:48.424Z,3.30
2019-05-06T08:53:24.231Z,3.50
2019-05-06T08:58:47.613Z,3.40
2019-05-06T09:04:06.414Z,3.70
2019-05-06T09:09:02.386Z,4.23
2019-05-06T09:14:13.128Z,3.83
2019-05-06T09:19:17.379Z,5.07
2019-05-06T09:24:24.432Z,4.13
2019-05-06T09:29:39.189Z,4.13
2019-05-06T09:34:52.734Z,4.57
2019-05-06T09:39:58.083Z,3.83
2019-05-06T09:45:05.904Z,3.30
2019-05-06T09:50:13.886Z,3.40
2019-05-06T09:55:28.683Z,3.23
2019-05-06T10:00:37.559Z,3.33
2019-05-06T10:05:43.081Z,3.27
2019-05-06T10:10:58.739Z,3.67
2019-05-06T10:15:59.634Z,3.47
2019-05-06T10:21:05.449Z,3.17
2019-05-06T10:26:12.939Z,3.83
2019-05-06T10:31:18.965Z,3.50
2019-05-06T10:36:27.153Z,3.60
2019-05-06T10:41:37.224Z,3.77
2019-05-06T10:46:43.041Z,3.33
2019-05-06T10:51:54.708Z,3.43
2019-05-06T10:57:22.303Z,4.30
2019-05-06T11:02:58.486Z,3.23
2019-05-06T11:08:04.052Z,5.53
2019-05-06T11:13:12.773Z,3.40
2019-05-06T11:18:17.717Z,3.93
2019-05-06T11:23:23.121Z,3.97
2019-05-06T11:29:05.880Z,3.07
2019-05-06T11:34:32.600Z,3.47
2019-05-06T11:39:38.595Z,4.10
2019-05-06T11:44:47.010Z,3.87
2019-05-06T11:49:57.022Z,4.17
2019-05-06T11:55:34.397Z,4.90
2019-05-06T12:00:44.199Z,3.40
2019-05-06T12:05:52.654Z,3.70
2019-05-06T12:11:02.922Z,3.73
2019-05-06T12:16:14.113Z,3.80
2019-05-06T12:21:19.639Z,3.57
2019-05-06T12:26:25.143Z,4.93
2019-05-06T12:31:33.131Z,3.80
2019-05-06T12:36:42.768Z,3.73
2019-05-06T12:42:13.805Z,4.40
2019-05-06T12:47:32.870Z,3.77
2019-05-06T12:52:37.715Z,4.07
2019-05-06T12:57:53.014Z,4.13
2019-05-06T13:03:02.256Z,3.40
2019-05-06T13:08:09.148Z,3.57
